Time;durP1;ratioP1;P1;durP2;ratioP2;P2;SDS_P1;SDS_P2;PMS_P1;PMS_P2;Temp;Humidity;BMP_temperature;BMP_pressure;BME280_temperature;BME280_humidity;BME280_pressure;Samples;Min_cycle;Max_cycle;Signal;HPM_P1;HPM_P2
2024/02/28 00:00:20;;;;;;;21.55;10.45;;;;;;;7.35;100.00;98790.63;5071644;28;20024;-78
2024/02/28 00:02:45;;;;;;;23.67;11.40;;;;;;;7.30;100.00;98784.97;5077493;28;20445;-78
2024/02/28 00:05:11;;;;;;;25.58;11.77;;;;;;;7.42;100.00;98805.88;5068435;28;20020;-78
2024/02/28 00:07:36;;;;;;;24.05;11.70;;;;;;;7.31;100.00;98781.25;5067233;28;20016;-78
2024/02/28 00:10:02;;;;;;;24.88;12.02;;;;;;;7.40;100.00;98790.94;5073329;28;20015;-78
2024/02/28 00:12:27;;;;;;;24.88;11.65;;;;;;;7.29;100.00;98775.22;5075494;28;20016;-78
2024/02/28 00:14:52;;;;;;;22.83;11.52;;;;;;;7.15;100.00;98752.63;5070806;28;20305;-78
2024/02/28 00:17:18;;;;;;;22.95;11.23;;;;;;;7.35;100.00;98786.09;5066687;28;20111;-78
2024/02/28 00:19:43;;;;;;;26.52;12.45;;;;;;;7.22;100.00;98775.94;5064157;28;20028;-78
2024/02/28 00:22:09;;;;;;;24.30;11.85;;;;;;;7.39;100.00;98789.28;5060331;28;20281;-78
2024/02/28 00:24:35;;;;;;;26.00;11.90;;;;;;;7.28;100.00;98787.00;5066344;28;20027;-78
2024/02/28 00:27:00;;;;;;;23.98;11.82;;;;;;;7.41;100.00;98803.34;5083962;28;20021;-78
2024/02/28 00:29:26;;;;;;;27.08;13.38;;;;;;;7.35;100.00;98799.53;5085755;28;20030;-78
2024/02/28 00:31:51;;;;;;;24.48;12.55;;;;;;;7.31;100.00;98797.41;5071143;28;20158;-78
2024/02/28 00:34:17;;;;;;;26.75;12.68;;;;;;;7.15;100.00;98768.78;5072728;28;20023;-79
2024/02/28 00:36:42;;;;;;;24.73;12.55;;;;;;;7.39;100.00;98811.63;5071513;28;20049;-78
2024/02/28 00:39:08;;;;;;;26.75;11.85;;;;;;;7.27;100.00;98814.94;5057366;28;20096;-78
2024/02/28 00:41:33;;;;;;;30.60;12.63;;;;;;;7.19;100.00;98791.63;5066652;28;20099;-78
2024/02/28 00:43:58;;;;;;;28.00;12.75;;;;;;;7.29;100.00;98805.66;5091942;28;20019;-79
2024/02/28 00:46:24;;;;;;;27.00;12.57;;;;;;;7.29;100.00;98811.03;5067252;28;20082;-79
2024/02/28 00:48:49;;;;;;;27.90;13.55;;;;;;;7.17;100.00;98790.97;5078778;28;20215;-79
2024/02/28 00:51:14;;;;;;;27.70;12.95;;;;;;;7.00;100.00;98768.75;5070221;28;20050;-78
2024/02/28 00:53:40;;;;;;;26.10;12.07;;;;;;;7.14;100.00;98785.97;5085219;28;20108;-78
2024/02/28 00:56:06;;;;;;;27.95;12.48;;;;;;;7.32;100.00;98804.47;5069576;28;20215;-79
2024/02/28 00:58:31;;;;;;;33.25;13.27;;;;;;;7.35;100.00;98814.88;5070986;28;20334;-78
2024/02/28 01:00:57;;;;;;;26.75;12.27;;;;;;;7.09;100.00;98773.03;5075842;28;20027;-79
2024/02/28 01:03:22;;;;;;;27.58;13.20;;;;;;;7.41;100.00;98814.97;5078891;28;20197;-79
2024/02/28 01:05:49;;;;;;;26.10;13.18;;;;;;;7.38;100.00;98801.03;5070175;28;20027;-78
2024/02/28 01:08:17;;;;;;;26.20;12.70;;;;;;;7.33;100.00;98806.97;5069924;28;20020;-78
2024/02/28 01:10:42;;;;;;;27.20;12.20;;;;;;;7.31;100.00;98809.03;5057880;28;20331;-78
2024/02/28 01:13:07;;;;;;;27.65;13.23;;;;;;;7.32;100.00;98804.47;5096875;28;20037;-79
2024/02/28 01:15:33;;;;;;;23.40;11.77;;;;;;;7.36;100.00;98811.13;5080382;28;20029;-78
2024/02/28 01:17:58;;;;;;;25.60;12.38;;;;;;;7.33;100.00;98811.50;5079039;28;20024;-79
2024/02/28 01:20:23;;;;;;;22.52;12.52;;;;;;;7.21;100.00;98800.38;5066763;28;20055;-79
2024/02/28 01:22:49;;;;;;;29.70;13.65;;;;;;;7.25;100.00;98812.41;5060837;28;20098;-78
2024/02/28 01:25:14;;;;;;;26.77;12.93;;;;;;;7.21;100.00;98808.44;5078902;28;20047;-78
2024/02/28 01:27:39;;;;;;;25.38;12.25;;;;;;;7.25;100.00;98820.50;5078692;28;20315;-79
2024/02/28 01:30:06;;;;;;;24.23;12.65;;;;;;;7.31;100.00;98830.56;5074289;28;20185;-78
2024/02/28 01:32:31;;;;;;;26.70;11.93;;;;;;;7.20;100.00;98804.91;5086482;28;20092;-79
2024/02/28 01:34:56;;;;;;;26.15;13.30;;;;;;;7.29;100.00;98808.34;5079359;28;20017;-78
2024/02/28 01:37:23;;;;;;;30.08;12.98;;;;;;;7.15;100.00;98793.84;5091885;28;20422;-78
2024/02/28 01:39:49;;;;;;;27.48;12.48;;;;;;;7.15;100.00;98799.25;5063532;28;20341;-78
2024/02/28 01:42:15;;;;;;;26.30;12.65;;;;;;;7.25;100.00;98818.63;5064888;28;20028;-78
2024/02/28 01:44:45;;;;;;;24.63;12.68;;;;;;;7.25;100.00;98821.31;5088278;28;20079;-79
2024/02/28 01:47:10;;;;;;;31.38;13.15;;;;;;;7.08;100.00;98809.03;5072024;28;20028;-79
2024/02/28 01:49:36;;;;;;;25.63;12.43;;;;;;;7.22;100.00;98828.94;5076927;28;20091;-78
2024/02/28 01:52:03;;;;;;;28.20;12.45;;;;;;;7.02;100.00;98793.59;5072361;28;20034;-78
2024/02/28 01:54:29;;;;;;;24.55;12.02;;;;;;;7.10;100.00;98807.00;5069934;28;20020;-78
2024/02/28 01:56:55;;;;;;;24.85;12.35;;;;;;;7.20;100.00;98823.75;5088190;28;20012;-78
2024/02/28 01:59:24;;;;;;;24.35;12.13;;;;;;;7.22;100.00;98827.06;5070239;28;20145;-76
2024/02/28 02:01:50;;;;;;;25.83;12.33;;;;;;;7.05;100.00;98808.56;5071536;28;20312;-78
2024/02/28 02:04:15;;;;;;;20.92;11.15;;;;;;;7.07;100.00;98818.13;5085749;28;20293;-79
2024/02/28 02:06:43;;;;;;;21.27;11.25;;;;;;;7.11;100.00;98834.75;5083065;28;20028;-79
2024/02/28 02:09:09;;;;;;;26.83;12.43;;;;;;;6.92;100.00;98803.81;5086816;28;20351;-78
2024/02/28 02:11:35;;;;;;;29.63;12.85;;;;;;;7.13;100.00;98838.94;5081525;28;20012;-79
2024/02/28 02:14:00;;;;;;;27.40;12.57;;;;;;;7.14;100.00;98823.63;5087198;28;20376;-79
2024/02/28 02:16:26;;;;;;;26.88;12.52;;;;;;;7.08;100.00;98829.72;5077274;28;20035;-79
2024/02/28 02:18:51;;;;;;;25.02;12.52;;;;;;;6.82;100.00;98806.72;5070795;28;20028;-79
2024/02/28 02:21:20;;;;;;;23.60;11.68;;;;;;;7.08;100.00;98852.09;5068230;28;20032;-78
2024/02/28 02:23:45;;;;;;;26.95;12.52;;;;;;;6.75;100.00;98805.75;5047498;28;20024;-79
2024/02/28 02:26:10;;;;;;;26.27;12.80;;;;;;;6.91;100.00;98847.84;5078014;28;20345;-78
2024/02/28 02:28:36;;;;;;;25.17;12.55;;;;;;;6.90;100.00;98851.56;5066945;28;20024;-78
2024/02/28 02:31:01;;;;;;;28.98;12.75;;;;;;;6.93;100.00;98857.41;5095342;28;20050;-78
2024/02/28 02:33:26;;;;;;;26.15;12.88;;;;;;;6.96;100.00;98865.09;5079159;28;20065;-78
2024/02/28 02:35:53;;;;;;;23.52;11.70;;;;;;;6.90;100.00;98863.13;5066231;28;20023;-78
2024/02/28 02:38:18;;;;;;;24.58;12.38;;;;;;;6.96;100.00;98875.03;5071606;28;20064;-77
2024/02/28 02:40:43;;;;;;;29.75;12.85;;;;;;;6.87;100.00;98868.03;5072458;28;20028;-77
2024/02/28 02:43:09;;;;;;;30.25;13.68;;;;;;;6.97;100.00;98865.97;5097719;28;20019;-78
2024/02/28 02:45:35;;;;;;;25.27;12.18;;;;;;;6.71;100.00;98847.47;5078708;28;20017;-78
2024/02/28 02:48:00;;;;;;;27.10;12.48;;;;;;;6.76;100.00;98848.63;5049365;28;20386;-79
2024/02/28 02:50:25;;;;;;;24.45;12.85;;;;;;;6.94;100.00;98890.50;5070702;28;20025;-78
2024/02/28 02:52:51;;;;;;;26.92;12.90;;;;;;;6.74;100.00;98871.31;5075634;28;20019;-78
2024/02/28 02:55:16;;;;;;;26.30;12.38;;;;;;;6.76;100.00;98874.66;5070448;28;20028;-78
2024/02/28 02:57:42;;;;;;;26.30;13.23;;;;;;;6.89;100.00;98906.34;5091795;28;20083;-79
2024/02/28 03:00:08;;;;;;;25.88;12.65;;;;;;;6.79;100.00;98893.97;5073466;28;20074;-78
2024/02/28 03:02:34;;;;;;;26.10;13.02;;;;;;;6.91;100.00;98907.84;5067108;28;20103;-79
2024/02/28 03:05:00;;;;;;;22.35;11.95;;;;;;;6.76;100.00;98885.44;5083701;28;20024;-79
2024/02/28 03:07:25;;;;;;;24.52;12.20;;;;;;;6.84;100.00;98906.03;5075293;28;20031;-79
2024/02/28 03:09:50;;;;;;;25.42;12.95;;;;;;;6.75;100.00;98884.56;5084033;28;20070;-78
2024/02/28 03:12:15;;;;;;;26.60;13.15;;;;;;;6.84;100.00;98897.97;5066581;28;20252;-79
2024/02/28 03:14:41;;;;;;;23.08;12.32;;;;;;;6.78;100.00;98886.06;5064920;28;20025;-79
2024/02/28 03:17:06;;;;;;;24.95;12.27;;;;;;;6.77;100.00;98895.97;5092577;28;20048;-79
2024/02/28 03:19:31;;;;;;;25.13;12.30;;;;;;;6.84;100.00;98923.03;5094529;28;20078;-78
2024/02/28 03:21:56;;;;;;;25.13;12.70;;;;;;;6.67;100.00;98900.75;5077632;28;20024;-79
2024/02/28 03:24:22;;;;;;;21.58;11.95;;;;;;;6.56;100.00;98880.47;5079803;28;20228;-78
2024/02/28 03:26:47;;;;;;;26.30;12.60;;;;;;;6.81;100.00;98936.78;5072660;28;20074;-79
2024/02/28 03:29:12;;;;;;;26.10;11.90;;;;;;;6.75;100.00;98932.13;5075637;28;20351;-79
2024/02/28 03:31:37;;;;;;;22.38;12.45;;;;;;;6.73;100.00;98937.69;5085210;22;20092;-79
2024/02/28 03:34:03;;;;;;;24.38;11.45;;;;;;;6.80;100.00;98944.03;5061868;28;20033;-79
2024/02/28 03:36:28;;;;;;;26.15;13.02;;;;;;;6.73;100.00;98945.78;5050527;28;20029;-79
2024/02/28 03:38:54;;;;;;;24.10;12.38;;;;;;;6.64;100.00;98936.03;5034659;28;20307;-79
2024/02/28 03:41:19;;;;;;;24.63;12.05;;;;;;;6.70;100.00;98945.25;5051142;28;20082;-79
2024/02/28 03:43:44;;;;;;;29.10;12.95;;;;;;;6.68;100.00;98941.91;5050738;28;20032;-79
2024/02/28 03:46:09;;;;;;;24.00;12.27;;;;;;;6.73;100.00;98950.28;5033874;28;20017;-79
2024/02/28 03:48:35;;;;;;;29.42;13.43;;;;;;;6.65;100.00;98953.84;5058484;28;20033;-80
2024/02/28 03:51:00;;;;;;;28.02;13.23;;;;;;;6.63;100.00;98955.03;5035393;28;20376;-79
2024/02/28 03:53:26;;;;;;;24.98;12.40;;;;;;;6.54;100.00;98938.94;5037015;28;20059;-79
2024/02/28 03:55:51;;;;;;;28.13;13.77;;;;;;;6.74;100.00;98970.81;5034891;28;20018;-79
2024/02/28 03:58:16;;;;;;;25.35;12.43;;;;;;;6.58;100.00;98961.78;5024351;28;20021;-80
2024/02/28 04:00:44;;;;;;;25.38;12.57;;;;;;;6.67;100.00;98976.03;5033782;28;20029;-80
2024/02/28 04:03:09;;;;;;;30.88;12.57;;;;;;;6.69;100.00;98987.44;5041882;28;20384;-80
2024/02/28 04:05:35;;;;;;;25.27;12.15;;;;;;;6.73;100.00;98980.72;5040219;28;20056;-79
2024/02/28 04:08:00;;;;;;;24.70;11.85;;;;;;;6.59;100.00;98965.31;5033836;28;20024;-79
2024/02/28 04:10:25;;;;;;;22.20;11.43;;;;;;;6.83;100.00;98993.09;5039165;28;20022;-79
2024/02/28 04:12:51;;;;;;;24.45;10.98;;;;;;;6.76;100.00;98985.75;5042162;28;20117;-79
2024/02/28 04:15:16;;;;;;;21.83;11.27;;;;;;;6.78;100.00;98981.00;5036671;28;20029;-78
2024/02/28 04:17:41;;;;;;;19.90;10.15;;;;;;;6.77;100.00;99002.72;5035561;28;20243;-79
2024/02/28 04:20:11;;;;;;;21.23;10.73;;;;;;;6.71;100.00;99000.72;5033968;28;20343;-80
2024/02/28 04:22:36;;;;;;;21.40;10.75;;;;;;;6.68;100.00;98988.47;5042556;28;20032;-80
2024/02/28 04:25:03;;;;;;;22.35;10.93;;;;;;;6.59;100.00;98976.88;5047333;28;20281;-80
2024/02/28 04:27:28;;;;;;;21.67;11.10;;;;;;;6.73;100.00;98999.53;5045203;28;20320;-79
2024/02/28 04:29:53;;;;;;;18.40;9.75;;;;;;;6.69;100.00;98995.50;5023405;28;20048;-80
2024/02/28 04:32:19;;;;;;;17.52;9.95;;;;;;;6.69;100.00;99014.34;5051146;28;20194;-80
2024/02/28 04:34:44;;;;;;;17.92;9.90;;;;;;;6.66;100.00;99011.16;5028806;28;20064;-80
2024/02/28 04:37:09;;;;;;;19.30;9.65;;;;;;;6.60;100.00;99001.91;5041229;28;20032;-79
2024/02/28 04:39:34;;;;;;;21.20;11.15;;;;;;;6.67;100.00;99015.53;5019371;28;20033;-81
2024/02/28 04:42:00;;;;;;;21.40;10.55;;;;;;;6.59;100.00;99005.63;5046844;28;20072;-81
2024/02/28 04:44:47;;;;;;;19.75;10.45;;;;;;;6.66;100.00;99006.63;5037206;28;20029;-80
2024/02/28 04:47:27;;;;;;;19.13;9.73;;;;;;;6.33;100.00;98969.06;5041860;28;20295;-81
2024/02/28 04:53:50;;;;;;;20.63;10.60;;;;;;;6.24;100.00;98969.28;4911035;29;20206;-81
2024/02/28 04:58:53;;;;;;;22.73;10.73;;;;;;;6.44;100.00;99020.78;5081564;23;20048;-59
2024/02/28 05:01:18;;;;;;;20.40;10.65;;;;;;;6.45;100.00;99025.16;5069842;28;20043;-60
2024/02/28 05:03:43;;;;;;;18.77;9.88;;;;;;;6.42;100.00;99028.16;5072044;28;20360;-59
2024/02/28 05:06:09;;;;;;;22.15;10.13;;;;;;;6.42;100.00;99028.16;5075180;28;20024;-59
2024/02/28 05:08:37;;;;;;;24.25;10.35;;;;;;;6.37;100.00;99026.03;5060299;28;20337;-59
2024/02/28 05:11:03;;;;;;;18.23;9.27;;;;;;;6.41;100.00;99023.81;5066229;28;20025;-60
2024/02/28 05:13:28;;;;;;;20.75;10.27;;;;;;;6.47;100.00;99026.69;5074419;28;20036;-60
2024/02/28 05:15:54;;;;;;;21.20;10.45;;;;;;;6.39;100.00;99023.13;5074534;28;20020;-59
2024/02/28 05:18:20;;;;;;;19.67;9.82;;;;;;;6.37;100.00;99028.72;5066984;28;20024;-59
2024/02/28 05:20:45;;;;;;;21.15;10.40;;;;;;;6.41;100.00;99030.03;5067015;28;20365;-58
2024/02/28 05:23:11;;;;;;;19.40;10.20;;;;;;;6.43;100.00;99027.19;5074499;28;20352;-59
2024/02/28 05:25:37;;;;;;;19.58;9.75;;;;;;;6.43;100.00;99029.88;5070841;28;20029;-59
2024/02/28 05:28:03;;;;;;;21.63;10.07;;;;;;;6.46;100.00;99032.22;5070488;28;20490;-58
2024/02/28 05:30:29;;;;;;;22.10;9.93;;;;;;;6.37;100.00;99017.97;5055522;28;20056;-59
2024/02/28 05:32:54;;;;;;;27.75;10.70;;;;;;;6.22;100.00;99016.97;5070200;28;20024;-59
2024/02/28 05:35:20;;;;;;;27.08;10.50;;;;;;;6.35;100.00;99033.41;5067568;28;20036;-59
2024/02/28 05:37:46;;;;;;;19.17;10.40;;;;;;;6.33;100.00;99030.88;5066565;28;20029;-59
2024/02/28 05:40:12;;;;;;;22.13;10.98;;;;;;;6.44;100.00;99036.91;5071328;28;20029;-59
2024/02/28 05:42:39;;;;;;;19.20;10.35;;;;;;;6.33;100.00;99036.25;5069670;28;20054;-59
2024/02/28 05:45:05;;;;;;;22.85;11.48;;;;;;;6.34;100.00;99040.63;5071687;28;20024;-59
2024/02/28 05:47:31;;;;;;;21.55;11.18;;;;;;;6.29;100.00;99056.44;5076169;28;20107;-59
2024/02/28 05:49:58;;;;;;;20.73;11.68;;;;;;;6.34;100.00;99054.06;5060967;28;20350;-59
2024/02/28 05:52:25;;;;;;;21.25;10.82;;;;;;;6.36;100.00;99052.03;5069708;28;20028;-59
2024/02/28 05:54:51;;;;;;;18.63;10.40;;;;;;;6.38;100.00;99046.50;5072567;28;20074;-59
2024/02/28 05:57:16;;;;;;;21.15;11.82;;;;;;;6.26;100.00;99040.66;5074721;28;20380;-60
2024/02/28 05:59:42;;;;;;;21.92;11.50;;;;;;;6.25;100.00;99057.75;5071437;28;20029;-60
2024/02/28 06:02:08;;;;;;;18.35;9.77;;;;;;;6.27;100.00;99053.06;5068928;28;20060;-60
2024/02/28 06:04:33;;;;;;;21.08;10.88;;;;;;;6.21;100.00;99059.13;5072868;28;20039;-59
2024/02/28 06:06:59;;;;;;;20.58;9.80;;;;;;;6.20;100.00;99060.13;5049778;28;20025;-59
2024/02/28 06:09:25;;;;;;;19.80;11.15;;;;;;;6.29;100.00;99061.81;5079450;28;20028;-59
2024/02/28 06:11:51;;;;;;;23.30;9.70;;;;;;;6.24;100.00;99066.00;5068363;28;20031;-59
2024/02/28 06:14:16;;;;;;;22.25;11.32;;;;;;;6.19;100.00;99069.19;5065705;28;20017;-58
2024/02/28 06:16:42;;;;;;;22.63;10.57;;;;;;;6.12;100.00;99077.06;5062491;28;20081;-58
2024/02/28 06:19:07;;;;;;;20.23;10.38;;;;;;;6.17;100.00;99084.63;5066418;28;20036;-58
2024/02/28 06:21:32;;;;;;;24.73;10.52;;;;;;;6.20;100.00;99081.59;5064148;28;20055;-59
2024/02/28 06:23:58;;;;;;;24.33;10.82;;;;;;;6.10;100.00;99083.63;5049685;28;20036;-58
2024/02/28 06:26:23;;;;;;;24.00;11.52;;;;;;;6.09;100.00;99088.16;5068371;28;20020;-59
2024/02/28 06:28:50;;;;;;;21.05;11.07;;;;;;;6.20;100.00;99094.22;5066468;28;20569;-59
2024/02/28 06:31:16;;;;;;;19.38;10.40;;;;;;;6.24;100.00;99095.56;5054166;28;20405;-59
2024/02/28 06:33:43;;;;;;;21.30;10.68;;;;;;;6.27;100.00;99095.22;5069371;28;20039;-59
2024/02/28 06:36:08;;;;;;;20.88;10.18;;;;;;;6.24;100.00;99101.78;5067666;28;20121;-59
2024/02/28 06:38:34;;;;;;;24.25;11.18;;;;;;;6.25;100.00;99108.81;5074956;28;20500;-59
2024/02/28 06:41:04;;;;;;;23.45;10.65;;;;;;;6.26;100.00;99118.56;5072765;28;20017;-59
2024/02/28 06:43:29;;;;;;;;;;;;;;;6.33;100.00;99119.56;5068020;28;20039;-58
2024/02/28 06:45:55;;;;;;;19.80;10.55;;;;;;;6.40;100.00;99133.16;5066427;28;20263;-59
2024/02/28 06:48:20;;;;;;;19.38;10.35;;;;;;;6.51;100.00;99135.50;5073241;28;20047;-59
2024/02/28 06:50:46;;;;;;;20.48;10.40;;;;;;;6.47;100.00;99120.75;5075042;28;20048;-58
2024/02/28 06:53:11;;;;;;;19.80;10.50;;;;;;;6.51;100.00;99118.53;5073091;28;20039;-59
2024/02/28 06:55:36;;;;;;;22.95;11.85;;;;;;;6.53;100.00;99124.59;5071933;28;20035;-58
2024/02/28 06:58:02;;;;;;;24.50;11.23;;;;;;;6.54;100.00;99128.94;5066989;28;20032;-58
2024/02/28 07:00:27;;;;;;;24.42;11.88;;;;;;;6.59;100.00;99123.91;5070066;28;20025;-59
2024/02/28 07:02:53;;;;;;;21.10;11.07;;;;;;;6.56;100.00;99121.56;5073479;28;20036;-59
2024/02/28 07:05:19;;;;;;;22.58;11.25;;;;;;;6.51;100.00;99132.81;5072133;28;20054;-59
2024/02/28 07:07:44;;;;;;;22.90;11.82;;;;;;;6.61;100.00;99140.72;5062311;28;20028;-59
2024/02/28 07:10:10;;;;;;;25.98;12.23;;;;;;;6.64;100.00;99140.38;5064632;28;20031;-59
2024/02/28 07:12:35;;;;;;;25.25;11.82;;;;;;;6.65;100.00;99150.09;5071187;28;20078;-59
2024/02/28 07:15:01;;;;;;;18.63;9.60;;;;;;;6.68;100.00;99151.63;5071915;28;20021;-59
2024/02/28 07:17:26;;;;;;;22.77;11.00;;;;;;;6.83;100.00;99138.31;5067128;28;20433;-59
2024/02/28 07:19:52;;;;;;;22.95;10.82;;;;;;;6.89;100.00;99140.31;5070338;28;20368;-59
2024/02/28 07:22:17;;;;;;;21.02;11.45;;;;;;;6.92;100.00;99142.69;5066376;28;20059;-59
2024/02/28 07:24:43;;;;;;;24.30;11.98;;;;;;;6.83;100.00;99147.22;5069543;28;20024;-58
2024/02/28 07:27:08;;;;;;;21.20;10.60;;;;;;;6.77;100.00;99151.44;5062790;28;20036;-59
2024/02/28 07:29:34;;;;;;;22.73;11.57;;;;;;;6.88;100.00;99162.84;5070842;28;20420;-59
2024/02/28 07:32:02;;;;;;;23.10;11.40;;;;;;;6.92;100.00;99162.34;5070008;28;20016;-59
2024/02/28 07:34:27;;;;;;;22.15;10.70;;;;;;;7.02;100.00;99164.84;5069654;28;20028;-60
2024/02/28 07:36:53;;;;;;;25.83;12.07;;;;;;;7.07;100.00;99162.47;5061547;28;20031;-60
2024/02/28 07:39:20;;;;;;;20.80;11.00;;;;;;;6.98;100.00;99155.44;5068413;28;20020;-60
2024/02/28 07:41:46;;;;;;;23.77;12.07;;;;;;;6.93;100.00;99171.25;5071047;28;20029;-60
2024/02/28 07:44:11;;;;;;;24.65;11.45;;;;;;;6.99;100.00;99179.47;5070717;28;20032;-60
2024/02/28 07:46:37;;;;;;;21.20;11.18;;;;;;;6.99;100.00;99184.00;5072019;28;20020;-60
2024/02/28 07:49:02;;;;;;;23.48;11.55;;;;;;;6.83;100.00;99175.97;5066999;28;20032;-59
2024/02/28 07:51:29;;;;;;;19.25;10.75;;;;;;;6.85;100.00;99185.56;5072039;28;20104;-59
2024/02/28 07:53:54;;;;;;;23.48;11.50;;;;;;;6.82;100.00;99195.81;5073149;28;20024;-60
2024/02/28 07:56:21;;;;;;;28.80;12.50;;;;;;;6.89;100.00;99202.19;5073701;28;20426;-60
2024/02/28 07:58:47;;;;;;;24.15;10.70;;;;;;;6.97;100.00;99211.09;5065190;28;20032;-60
2024/02/28 08:01:12;;;;;;;28.13;12.38;;;;;;;6.98;100.00;99211.94;5067718;28;20035;-60
2024/02/28 08:03:38;;;;;;;21.85;11.57;;;;;;;6.94;100.00;99216.81;5071464;28;20122;-60
2024/02/28 08:06:04;;;;;;;24.02;11.70;;;;;;;6.97;100.00;99210.28;5069809;28;20077;-58
2024/02/28 08:08:29;;;;;;;25.38;13.02;;;;;;;6.98;100.00;99212.78;5072672;28;20029;-60
2024/02/28 08:10:55;;;;;;;22.83;11.23;;;;;;;7.04;100.00;99211.25;5072588;28;20081;-59
2024/02/28 08:13:21;;;;;;;25.65;11.95;;;;;;;7.12;100.00;99215.78;5075917;28;20056;-59
2024/02/28 08:15:46;;;;;;;24.00;11.55;;;;;;;7.04;100.00;99200.47;5071207;28;20020;-59
2024/02/28 08:18:11;;;;;;;26.77;12.18;;;;;;;7.18;100.00;99212.41;5066318;28;20021;-59
2024/02/28 08:20:37;;;;;;;21.52;11.85;;;;;;;7.09;100.00;99211.56;5074955;28;20062;-59
2024/02/28 08:23:04;;;;;;;21.70;11.00;;;;;;;7.12;100.00;99216.59;5078201;28;20031;-59
2024/02/28 08:25:30;;;;;;;24.52;11.68;;;;;;;7.21;100.00;99220.97;5072632;28;20553;-59
2024/02/28 08:27:56;;;;;;;25.80;11.43;;;;;;;7.23;100.00;99220.78;5069418;28;20172;-59
2024/02/28 08:30:21;;;;;;;21.55;10.88;;;;;;;7.33;100.00;99226.00;5077592;28;20085;-59
2024/02/28 08:32:47;;;;;;;20.92;10.40;;;;;;;7.36;100.00;99214.88;5070304;28;20032;-59
2024/02/28 08:35:12;;;;;;;22.88;11.60;;;;;;;7.39;100.00;99219.94;5078949;28;20081;-60
2024/02/28 08:37:41;;;;;;;23.13;11.18;;;;;;;7.51;100.00;99218.53;5072872;28;20037;-59
2024/02/28 08:40:08;;;;;;;22.83;12.03;;;;;;;7.41;100.00;99196.34;5066378;28;20028;-59
2024/02/28 08:42:33;;;;;;;23.80;12.45;;;;;;;7.48;100.00;99216.19;5075362;28;20275;-60
2024/02/28 08:45:00;;;;;;;29.33;13.65;;;;;;;7.48;100.00;99226.97;5073710;28;20032;-59
2024/02/28 08:47:26;;;;;;;24.38;11.60;;;;;;;7.49;100.00;99225.09;5077558;28;20024;-59
2024/02/28 08:49:53;;;;;;;26.00;12.07;;;;;;;7.47;100.00;99219.91;5071518;28;20036;-60
2024/02/28 08:52:19;;;;;;;23.67;11.43;;;;;;;7.38;100.00;99220.94;5054897;28;20519;-60
2024/02/28 08:54:45;;;;;;;23.23;11.50;;;;;;;7.42;100.00;99224.97;5074737;28;20033;-60
2024/02/28 08:57:10;;;;;;;23.90;11.75;;;;;;;7.45;100.00;99220.06;5056162;28;20122;-59
2024/02/28 08:59:36;;;;;;;22.65;10.98;;;;;;;7.58;100.00;99224.06;5075341;28;20060;-59
2024/02/28 09:02:01;;;;;;;25.80;11.10;;;;;;;7.69;100.00;99231.75;5072162;28;20458;-59
2024/02/28 09:04:26;;;;;;;23.92;12.15;;;;;;;7.81;100.00;99229.53;5077153;28;20055;-59
2024/02/28 09:06:53;;;;;;;25.65;11.80;;;;;;;7.87;100.00;99237.75;5070660;28;20043;-59
2024/02/28 09:09:18;;;;;;;22.73;11.50;;;;;;;7.82;100.00;99232.03;5067250;28;20035;-59
2024/02/28 09:11:44;;;;;;;25.13;11.88;;;;;;;7.94;100.00;99245.13;5073482;28;20028;-59
2024/02/28 09:14:09;;;;;;;21.63;11.70;;;;;;;7.98;100.00;99230.28;5074222;28;20024;-61
2024/02/28 09:16:35;;;;;;;23.50;10.82;;;;;;;8.18;100.00;99233.41;5073837;28;20479;-59
2024/02/28 09:19:00;;;;;;;26.60;12.65;;;;;;;8.34;100.00;99234.13;5053086;28;20075;-58
2024/02/28 09:21:25;;;;;;;20.20;10.77;;;;;;;8.51;100.00;99237.59;5069309;28;20043;-59
2024/02/28 09:23:51;;;;;;;20.38;11.02;;;;;;;8.41;100.00;99225.34;5071719;28;20024;-60
2024/02/28 09:26:16;;;;;;;22.30;11.30;;;;;;;8.32;100.00;99232.63;5075779;28;20025;-59
2024/02/28 09:28:42;;;;;;;23.20;10.95;;;;;;;8.32;100.00;99232.63;5073245;28;20051;-59
2024/02/28 09:31:08;;;;;;;18.45;10.20;;;;;;;8.52;100.00;99230.34;5074288;28;20472;-59
2024/02/28 09:33:34;;;;;;;21.10;10.20;;;;;;;8.41;100.00;99219.94;5073143;28;20031;-59
2024/02/28 09:36:02;;;;;;;19.85;9.52;;;;;;;8.46;100.00;99221.13;5067938;28;20029;-60
2024/02/28 09:38:27;;;;;;;20.85;10.07;;;;;;;8.40;100.00;99213.72;5049082;28;20345;-60
2024/02/28 09:40:53;;;;;;;20.30;10.27;;;;;;;8.73;100.00;99200.00;5054303;28;20028;-59
2024/02/28 09:43:27;;;;;;;19.70;9.45;;;;;;;8.60;100.00;99224.03;5073527;28;20033;-59
2024/02/28 09:45:57;;;;;;;17.58;9.27;;;;;;;8.59;100.00;99195.38;5325153;22;20027;-61
2024/02/28 09:48:23;;;;;;;22.40;10.35;;;;;;;8.67;100.00;99230.38;5031070;28;20048;-55
2024/02/28 09:50:49;;;;;;;20.85;9.57;;;;;;;8.71;100.00;99221.75;5028637;28;20072;-54
2024/02/28 09:53:14;;;;;;;19.38;9.85;;;;;;;8.66;100.00;99229.53;5028173;28;20025;-54
2024/02/28 09:55:40;;;;;;;21.52;9.85;;;;;;;8.75;100.00;99236.56;5026970;28;20097;-54
2024/02/28 09:58:07;;;;;;;20.95;10.57;;;;;;;8.60;100.00;99230.28;5011072;28;20076;-55
2024/02/28 10:00:34;;;;;;;22.27;10.70;;;;;;;8.14;100.00;99224.81;5023210;28;20496;-54
2024/02/28 10:03:00;;;;;;;24.05;11.10;;;;;;;8.31;100.00;99231.78;5016267;28;20049;-54
2024/02/28 10:05:28;;;;;;;19.85;10.48;;;;;;;8.52;100.00;99241.97;5023626;28;20034;-54
2024/02/28 10:07:54;;;;;;;20.40;10.23;;;;;;;8.70;100.00;99235.44;5020430;28;20100;-55
2024/02/28 10:10:20;;;;;;;21.08;10.13;;;;;;;8.80;100.00;99244.09;5016269;28;20180;-54
2024/02/28 10:12:45;;;;;;;20.88;10.82;;;;;;;8.87;100.00;99249.63;5024118;28;20044;-55
2024/02/28 10:15:11;;;;;;;22.15;11.10;;;;;;;8.93;100.00;99247.03;5016500;28;20480;-54
2024/02/28 10:17:36;;;;;;;25.92;12.02;;;;;;;8.78;100.00;99248.84;5012597;28;20509;-53
2024/02/28 10:20:04;;;;;;;24.00;11.48;;;;;;;8.50;100.00;99262.03;5014885;28;20025;-53
2024/02/28 10:22:34;;;;;;;22.77;11.35;;;;;;;8.29;100.00;99249.16;5020858;28;20048;-54
2024/02/28 10:25:00;;;;;;;22.73;11.27;;;;;;;8.28;100.00;99253.72;5016137;28;20034;-54
2024/02/28 10:27:25;;;;;;;25.77;11.13;;;;;;;8.26;100.00;99271.91;5014580;28;20101;-55
2024/02/28 10:29:51;;;;;;;25.65;11.50;;;;;;;8.24;100.00;99265.03;5020981;28;20036;-55
2024/02/28 10:32:16;;;;;;;26.92;11.38;;;;;;;8.22;100.00;99269.75;5023648;28;20109;-54
2024/02/28 10:34:43;;;;;;;26.67;12.55;;;;;;;8.23;100.00;99276.84;5014610;28;20048;-54
2024/02/28 10:37:09;;;;;;;28.33;12.10;;;;;;;8.40;100.00;99267.66;5022129;28;20453;-55
2024/02/28 10:39:36;;;;;;;26.13;11.13;;;;;;;8.31;100.00;99280.31;5020611;28;20473;-55
2024/02/28 10:42:03;;;;;;;26.30;12.15;;;;;;;8.18;100.00;99279.22;5017614;28;20057;-55
2024/02/28 10:44:34;;;;;;;30.38;11.20;;;;;;;8.25;100.00;99290.94;4998115;28;20037;-54
2024/02/28 10:47:02;;;;;;;25.63;11.50;;;;;;;8.27;100.00;99278.13;5019861;28;20029;-54
2024/02/28 10:49:27;;;;;;;23.17;10.80;;;;;;;8.52;100.00;99293.19;5013771;28;20030;-54
2024/02/28 10:51:56;;;;;;;27.45;11.50;;;;;;;8.47;100.00;99289.34;5008417;28;20531;-54
2024/02/28 10:54:25;;;;;;;26.55;11.90;;;;;;;8.58;100.00;99293.50;5013687;28;20034;-54
2024/02/28 10:56:51;;;;;;;23.77;11.15;;;;;;;8.61;100.00;99295.84;5010527;28;20029;-54
2024/02/28 10:59:17;;;;;;;23.85;11.00;;;;;;;8.65;100.00;99297.16;5025735;28;20021;-54
2024/02/28 11:01:44;;;;;;;24.38;11.00;;;;;;;8.70;100.00;99297.47;4992667;28;20095;-54
2024/02/28 11:04:11;;;;;;;24.48;11.43;;;;;;;8.74;100.00;99306.88;5009952;28;20033;-54
2024/02/28 11:06:48;;;;;;;24.35;10.48;;;;;;;8.58;100.00;99317.78;5024219;28;20029;-54
2024/02/28 11:09:19;;;;;;;23.38;11.18;;;;;;;8.60;100.00;99315.75;5018636;28;20148;-54
2024/02/28 11:11:45;;;;;;;24.17;10.82;;;;;;;8.47;100.00;99321.72;5017230;28;20022;-54
2024/02/28 11:14:14;;;;;;;22.27;10.80;;;;;;;8.45;100.00;99312.97;5008271;28;20075;-54
2024/02/28 11:16:44;;;;;;;20.38;10.25;;;;;;;8.43;100.00;99332.00;5021960;28;20030;-54